sensor_id;sensor_type;location;lat;lon;timestamp;pressure;altitude;pressure_sealevel;temperature;humidity
40612;BME280;26317;44.894;20.286;2023-05-12T00:00:34;100602.53;;;13.94;66.13
40612;BME280;26317;44.894;20.286;2023-05-12T00:03:04;100604.97;;;13.91;65.88
40612;BME280;26317;44.894;20.286;2023-05-12T00:05:37;100601.19;;;13.92;65.77
40612;BME280;26317;44.894;20.286;2023-05-12T00:08:07;100595.78;;;13.92;65.52
40612;BME280;26317;44.894;20.286;2023-05-12T00:10:37;100594.94;;;13.96;65.96
40612;BME280;26317;44.894;20.286;2023-05-12T00:13:10;100602.16;;;14.01;65.86
40612;BME280;26317;44.894;20.286;2023-05-12T00:15:41;100588.88;;;14.04;65.79
40612;BME280;26317;44.894;20.286;2023-05-12T00:18:11;100578.91;;;14.05;65.19
40612;BME280;26317;44.894;20.286;2023-05-12T00:20:45;100592.38;;;14.05;65.26
40612;BME280;26317;44.894;20.286;2023-05-12T00:23:16;100586.91;;;14.10;65.18
40612;BME280;26317;44.894;20.286;2023-05-12T00:25:46;100589.28;;;14.11;64.42
40612;BME280;26317;44.894;20.286;2023-05-12T00:28:19;100595.22;;;14.13;64.47
40612;BME280;26317;44.894;20.286;2023-05-12T00:30:49;100602.50;;;14.13;64.63
40612;BME280;26317;44.894;20.286;2023-05-12T00:33:21;100592.31;;;14.10;64.41
40612;BME280;26317;44.894;20.286;2023-05-12T00:35:51;100612.88;;;14.06;64.66
40612;BME280;26317;44.894;20.286;2023-05-12T00:38:21;100603.75;;;14.02;64.75
40612;BME280;26317;44.894;20.286;2023-05-12T00:40:51;100610.09;;;14.11;64.71
40612;BME280;26317;44.894;20.286;2023-05-12T00:43:24;100596.09;;;14.09;64.70
40612;BME280;26317;44.894;20.286;2023-05-12T00:45:55;100610.44;;;14.04;64.74
40612;BME280;26317;44.894;20.286;2023-05-12T00:48:26;100606.66;;;14.05;64.47
40612;BME280;26317;44.894;20.286;2023-05-12T00:50:58;100609.38;;;14.05;64.46
40612;BME280;26317;44.894;20.286;2023-05-12T00:53:30;100603.97;;;14.05;64.32
40612;BME280;26317;44.894;20.286;2023-05-12T00:56:15;100599.22;;;13.97;64.36
40612;BME280;26317;44.894;20.286;2023-05-12T00:58:48;100606.72;;;14.00;64.49
40612;BME280;26317;44.894;20.286;2023-05-12T01:01:19;100609.56;;;14.09;64.04
40612;BME280;26317;44.894;20.286;2023-05-12T01:03:52;100610.66;;;14.08;64.12
40612;BME280;26317;44.894;20.286;2023-05-12T01:06:27;100607.97;;;14.08;64.24
40612;BME280;26317;44.894;20.286;2023-05-12T01:08:58;100586.47;;;14.03;64.20
40612;BME280;26317;44.894;20.286;2023-05-12T01:11:29;100601.28;;;14.05;63.94
40612;BME280;26317;44.894;20.286;2023-05-12T01:14:02;100610.88;;;14.11;63.77
40612;BME280;26317;44.894;20.286;2023-05-12T01:16:37;100564.75;;;13.75;64.02
40612;BME280;26317;44.894;20.286;2023-05-12T01:19:17;100605.94;;;14.00;64.37
40612;BME280;26317;44.894;20.286;2023-05-12T01:21:52;100606.72;;;14.00;64.01
40612;BME280;26317;44.894;20.286;2023-05-12T01:24:23;100610.66;;;14.08;63.74
40612;BME280;26317;44.894;20.286;2023-05-12T01:26:59;100611.25;;;14.05;63.63
40612;BME280;26317;44.894;20.286;2023-05-12T01:29:30;100621.03;;;14.01;63.86
40612;BME280;26317;44.894;20.286;2023-05-12T01:32:01;100634.44;;;14.06;63.95
40612;BME280;26317;44.894;20.286;2023-05-12T01:34:33;100617.66;;;14.09;63.79
40612;BME280;26317;44.894;20.286;2023-05-12T01:37:03;100627.88;;;14.12;63.95
40612;BME280;26317;44.894;20.286;2023-05-12T01:39:37;100621.09;;;14.14;64.07
40612;BME280;26317;44.894;20.286;2023-05-12T01:42:13;100628.31;;;14.19;63.54
40612;BME280;26317;44.894;20.286;2023-05-12T01:44:44;100619.50;;;14.13;63.33
40612;BME280;26317;44.894;20.286;2023-05-12T01:47:14;100620.38;;;14.09;63.29
40612;BME280;26317;44.894;20.286;2023-05-12T01:49:51;100622.84;;;14.05;63.39
40612;BME280;26317;44.894;20.286;2023-05-12T01:52:22;100625.38;;;14.15;63.16
40612;BME280;26317;44.894;20.286;2023-05-12T01:54:52;100621.09;;;14.14;63.14
40612;BME280;26317;44.894;20.286;2023-05-12T01:57:26;100611.13;;;14.15;63.60
40612;BME280;26317;44.894;20.286;2023-05-12T02:00:00;100615.13;;;14.17;62.97
40612;BME280;26317;44.894;20.286;2023-05-12T02:02:38;100601.69;;;14.12;63.62
40612;BME280;26317;44.894;20.286;2023-05-12T02:05:11;100622.13;;;14.18;63.37
40612;BME280;26317;44.894;20.286;2023-05-12T02:07:47;100613.28;;;14.13;63.12
40612;BME280;26317;44.894;20.286;2023-05-12T02:10:18;100598.66;;;14.00;62.89
40612;BME280;26317;44.894;20.286;2023-05-12T02:12:51;100590.84;;;13.99;62.96
40612;BME280;26317;44.894;20.286;2023-05-12T02:15:22;100600.69;;;14.08;63.53
40612;BME280;26317;44.894;20.286;2023-05-12T02:17:55;100615.13;;;14.17;63.21
40612;BME280;26317;44.894;20.286;2023-05-12T02:20:26;100592.66;;;14.03;63.41
40612;BME280;26317;44.894;20.286;2023-05-12T02:22:56;100607.91;;;14.13;63.33
40612;BME280;26317;44.894;20.286;2023-05-12T02:25:29;100591.16;;;13.97;63.45
40612;BME280;26317;44.894;20.286;2023-05-12T02:28:01;100612.81;;;14.11;63.08
40612;BME280;26317;44.894;20.286;2023-05-12T02:30:34;100618.25;;;14.06;63.40
40612;BME280;26317;44.894;20.286;2023-05-12T02:33:05;100616.44;;;14.01;63.94
40612;BME280;26317;44.894;20.286;2023-05-12T02:35:35;100598.56;;;13.87;64.57
40612;BME280;26317;44.894;20.286;2023-05-12T02:38:05;100618.38;;;13.96;64.54
40612;BME280;26317;44.894;20.286;2023-05-12T02:40:36;100621.25;;;14.04;64.66
40612;BME280;26317;44.894;20.286;2023-05-12T02:43:10;100620.66;;;14.07;64.72
40612;BME280;26317;44.894;20.286;2023-05-12T02:45:42;100612.50;;;13.94;64.38
40612;BME280;26317;44.894;20.286;2023-05-12T02:48:13;100630.13;;;14.05;65.02
40612;BME280;26317;44.894;20.286;2023-05-12T02:50:43;100622.53;;;14.07;64.58
40612;BME280;26317;44.894;20.286;2023-05-12T02:53:14;100614.53;;;14.02;64.97
40612;BME280;26317;44.894;20.286;2023-05-12T02:55:44;100586.91;;;13.91;65.18
40612;BME280;26317;44.894;20.286;2023-05-12T02:58:17;100611.25;;;14.05;64.59
40612;BME280;26317;44.894;20.286;2023-05-12T03:00:51;100617.25;;;14.02;64.54
40612;BME280;26317;44.894;20.286;2023-05-12T03:03:35;100618.59;;;13.99;64.68
40612;BME280;26317;44.894;20.286;2023-05-12T03:06:07;100625.81;;;14.04;64.94
40612;BME280;26317;44.894;20.286;2023-05-12T03:08:38;100613.00;;;13.96;64.71
40612;BME280;26317;44.894;20.286;2023-05-12T03:11:08;100630.78;;;13.97;64.72
40612;BME280;26317;44.894;20.286;2023-05-12T03:13:41;100624.00;;;13.99;65.26
40612;BME280;26317;44.894;20.286;2023-05-12T03:16:12;100629.19;;;13.96;64.51
40612;BME280;26317;44.894;20.286;2023-05-12T03:18:46;100581.56;;;13.67;64.91
40612;BME280;26317;44.894;20.286;2023-05-12T03:21:17;100620.59;;;13.94;64.70
40612;BME280;26317;44.894;20.286;2023-05-12T03:23:47;100627.56;;;13.95;64.53
40612;BME280;26317;44.894;20.286;2023-05-12T03:26:18;100629.97;;;13.96;64.74
40612;BME280;26317;44.894;20.286;2023-05-12T03:28:51;100629.19;;;13.96;64.65
40612;BME280;26317;44.894;20.286;2023-05-12T03:31:22;100637.25;;;13.96;64.66
40612;BME280;26317;44.894;20.286;2023-05-12T03:33:53;100646.38;;;14.00;64.63
40612;BME280;26317;44.894;20.286;2023-05-12T03:36:23;100648.00;;;14.01;63.75
40612;BME280;26317;44.894;20.286;2023-05-12T03:38:53;100650.16;;;13.99;63.93
40612;BME280;26317;44.894;20.286;2023-05-12T03:41:28;100659.59;;;14.01;63.70
40612;BME280;26317;44.894;20.286;2023-05-12T03:44:01;100653.88;;;14.03;64.32
40612;BME280;26317;44.894;20.286;2023-05-12T03:46:31;100654.19;;;14.01;64.08
40612;BME280;26317;44.894;20.286;2023-05-12T03:49:02;100663.00;;;14.07;63.61
40612;BME280;26317;44.894;20.286;2023-05-12T03:51:32;100668.09;;;14.08;63.94
40612;BME280;26317;44.894;20.286;2023-05-12T03:54:03;100680.72;;;14.13;64.23
40612;BME280;26317;44.894;20.286;2023-05-12T03:56:33;100680.72;;;14.13;64.26
40612;BME280;26317;44.894;20.286;2023-05-12T03:59:06;100678.63;;;14.10;64.77
40612;BME280;26317;44.894;20.286;2023-05-12T04:01:39;100678.03;;;14.13;65.04
40612;BME280;26317;44.894;20.286;2023-05-12T04:04:09;100683.44;;;14.13;64.42
40612;BME280;26317;44.894;20.286;2023-05-12T04:06:40;100687.44;;;14.15;64.70
40612;BME280;26317;44.894;20.286;2023-05-12T04:09:10;100686.66;;;14.15;64.57
40612;BME280;26317;44.894;20.286;2023-05-12T04:11:40;100670.59;;;14.05;64.42
40612;BME280;26317;44.894;20.286;2023-05-12T04:14:13;100681.09;;;14.06;64.57
40612;BME280;26317;44.894;20.286;2023-05-12T04:16:44;100657.22;;;13.95;64.67
40612;BME280;26317;44.894;20.286;2023-05-12T04:19:14;100689.56;;;14.18;64.79
40612;BME280;26317;44.894;20.286;2023-05-12T04:21:45;100703.63;;;14.15;64.48
40612;BME280;26317;44.894;20.286;2023-05-12T04:24:15;100696.84;;;14.18;64.66
40612;BME280;26317;44.894;20.286;2023-05-12T04:26:46;100688.69;;;14.23;64.56
40612;BME280;26317;44.894;20.286;2023-05-12T04:29:19;100669.50;;;14.06;64.37
40612;BME280;26317;44.894;20.286;2023-05-12T04:31:49;100695.25;;;14.17;64.38
40612;BME280;26317;44.894;20.286;2023-05-12T04:34:21;100680.72;;;14.13;64.81
40612;BME280;26317;44.894;20.286;2023-05-12T04:36:52;100692.25;;;14.18;64.81
40612;BME280;26317;44.894;20.286;2023-05-12T04:39:22;100690.06;;;14.20;64.69
40612;BME280;26317;44.894;20.286;2023-05-12T04:41:53;100695.91;;;14.27;65.16
40612;BME280;26317;44.894;20.286;2023-05-12T04:44:26;100697.81;;;14.27;65.10
40612;BME280;26317;44.894;20.286;2023-05-12T04:46:57;100678.94;;;14.27;65.09
40612;BME280;26317;44.894;20.286;2023-05-12T04:49:28;100671.50;;;14.19;64.80
40612;BME280;26317;44.894;20.286;2023-05-12T04:51:58;100695.13;;;14.27;64.75
40612;BME280;26317;44.894;20.286;2023-05-12T04:54:30;100696.34;;;14.35;64.69
40612;BME280;26317;44.894;20.286;2023-05-12T04:57:01;100697.19;;;14.35;64.70
40612;BME280;26317;44.894;20.286;2023-05-12T04:59:34;100700.41;;;14.32;64.93
40612;BME280;26317;44.894;20.286;2023-05-12T05:02:07;100695.59;;;14.29;65.33
40612;BME280;26317;44.894;20.286;2023-05-12T05:04:38;100686.00;;;14.23;65.28
40612;BME280;26317;44.894;20.286;2023-05-12T05:07:08;100710.31;;;14.42;65.59
40612;BME280;26317;44.894;20.286;2023-05-12T05:09:39;100701.41;;;14.41;65.49
40612;BME280;26317;44.894;20.286;2023-05-12T05:12:09;100713.44;;;14.49;65.52
40612;BME280;26317;44.894;20.286;2023-05-12T05:14:42;100689.91;;;14.36;65.42
40612;BME280;26317;44.894;20.286;2023-05-12T05:17:16;100698.78;;;14.36;65.22
40612;BME280;26317;44.894;20.286;2023-05-12T05:19:46;100711.63;;;14.44;65.64
40612;BME280;26317;44.894;20.286;2023-05-12T05:22:28;100708.63;;;14.46;65.20
40612;BME280;26317;44.894;20.286;2023-05-12T05:24:59;100709.97;;;14.48;65.62
40612;BME280;26317;44.894;20.286;2023-05-12T05:27:32;100711.53;;;14.49;65.24
40612;BME280;26317;44.894;20.286;2023-05-12T05:30:06;100715.84;;;14.50;65.73
40612;BME280;26317;44.894;20.286;2023-05-12T05:32:38;100699.22;;;14.43;65.84
40612;BME280;26317;44.894;20.286;2023-05-12T05:35:11;100706.66;;;14.51;66.04
40612;BME280;26317;44.894;20.286;2023-05-12T05:37:46;100709.19;;;14.61;66.13
40612;BME280;26317;44.894;20.286;2023-05-12T05:40:17;100713.00;;;14.60;65.95
40612;BME280;26317;44.894;20.286;2023-05-12T05:42:47;100710.53;;;14.64;66.00
40612;BME280;26317;44.894;20.286;2023-05-12T05:45:21;100697.91;;;14.59;65.83
40612;BME280;26317;44.894;20.286;2023-05-12T05:47:54;100709.13;;;14.66;65.11
40612;BME280;26317;44.894;20.286;2023-05-12T05:50:27;100718.31;;;14.65;64.94
40612;BME280;26317;44.894;20.286;2023-05-12T05:52:58;100693.59;;;14.58;65.27
40612;BME280;26317;44.894;20.286;2023-05-12T05:55:28;100701.47;;;14.55;65.68
40612;BME280;26317;44.894;20.286;2023-05-12T05:57:58;100721.53;;;14.67;65.56
40612;BME280;26317;44.894;20.286;2023-05-12T06:00:32;100709.78;;;14.58;64.89
40612;BME280;26317;44.894;20.286;2023-05-12T06:03:12;100736.66;;;14.68;64.98
40612;BME280;26317;44.894;20.286;2023-05-12T06:05:46;100738.75;;;14.71;65.19
40612;BME280;26317;44.894;20.286;2023-05-12T06:08:16;100740.94;;;14.69;64.85
40612;BME280;26317;44.894;20.286;2023-05-12T06:10:46;100746.25;;;14.74;66.00
40612;BME280;26317;44.894;20.286;2023-05-12T06:13:19;100737.16;;;14.70;64.76
40612;BME280;26317;44.894;20.286;2023-05-12T06:15:52;100744.81;;;14.63;65.36
40612;BME280;26317;44.894;20.286;2023-05-12T06:18:22;100740.50;;;14.62;65.47
40612;BME280;26317;44.894;20.286;2023-05-12T06:20:55;100745.56;;;14.69;65.42
40612;BME280;26317;44.894;20.286;2023-05-12T06:23:26;100721.19;;;14.55;65.53
40612;BME280;26317;44.894;20.286;2023-05-12T06:25:56;100747.94;;;14.70;65.81
40612;BME280;26317;44.894;20.286;2023-05-12T06:28:27;100743.94;;;14.68;65.65
40612;BME280;26317;44.894;20.286;2023-05-12T06:31:00;100749.34;;;14.68;65.33
40612;BME280;26317;44.894;20.286;2023-05-12T06:33:30;100753.66;;;14.69;65.73
40612;BME280;26317;44.894;20.286;2023-05-12T06:36:01;100748.91;;;14.61;65.57
40612;BME280;26317;44.894;20.286;2023-05-12T06:38:32;100757.72;;;14.66;65.77
40612;BME280;26317;44.894;20.286;2023-05-12T06:41:02;100755.91;;;14.62;66.65
40612;BME280;26317;44.894;20.286;2023-05-12T06:43:32;100770.63;;;14.69;65.89
40612;BME280;26317;44.894;20.286;2023-05-12T06:46:05;100746.06;;;14.52;65.70
40612;BME280;26317;44.894;20.286;2023-05-12T06:48:37;100769.72;;;14.60;66.32
40612;BME280;26317;44.894;20.286;2023-05-12T06:51:08;100765.66;;;14.58;66.49
40612;BME280;26317;44.894;20.286;2023-05-12T06:53:39;100755.09;;;14.43;67.74
40612;BME280;26317;44.894;20.286;2023-05-12T06:56:09;100760.22;;;14.44;68.59
40612;BME280;26317;44.894;20.286;2023-05-12T06:58:43;100758.59;;;14.43;70.11
40612;BME280;26317;44.894;20.286;2023-05-12T07:01:16;100780.19;;;14.43;72.68
40612;BME280;26317;44.894;20.286;2023-05-12T07:03:48;100783.47;;;14.40;73.93
40612;BME280;26317;44.894;20.286;2023-05-12T07:06:18;100770.13;;;14.25;75.58
40612;BME280;26317;44.894;20.286;2023-05-12T07:08:48;100764.94;;;14.10;77.14
40612;BME280;26317;44.894;20.286;2023-05-12T07:11:19;100783.22;;;14.13;78.00
40612;BME280;26317;44.894;20.286;2023-05-12T07:13:49;100788.13;;;14.11;80.22
40612;BME280;26317;44.894;20.286;2023-05-12T07:16:23;100789.44;;;14.13;80.56
40612;BME280;26317;44.894;20.286;2023-05-12T07:18:56;100787.66;;;14.04;80.81
40612;BME280;26317;44.894;20.286;2023-05-12T07:21:26;100793.09;;;13.99;81.80
40612;BME280;26317;44.894;20.286;2023-05-12T07:23:56;100780.06;;;13.82;82.31
40612;BME280;26317;44.894;20.286;2023-05-12T07:26:27;100806.75;;;13.83;83.38
40612;BME280;26317;44.894;20.286;2023-05-12T07:28:57;100794.75;;;13.71;84.09
40612;BME280;26317;44.894;20.286;2023-05-12T07:31:34;100792.72;;;13.58;84.32
40612;BME280;26317;44.894;20.286;2023-05-12T07:34:04;100807.81;;;13.59;85.40
40612;BME280;26317;44.894;20.286;2023-05-12T07:36:34;100806.50;;;13.56;85.88
40612;BME280;26317;44.894;20.286;2023-05-12T07:39:05;100814.56;;;13.56;86.32
40612;BME280;26317;44.894;20.286;2023-05-12T07:41:35;100810.91;;;13.42;85.54
40612;BME280;26317;44.894;20.286;2023-05-12T07:44:05;100818.47;;;13.40;85.55
40612;BME280;26317;44.894;20.286;2023-05-12T07:46:38;100813.38;;;13.39;86.48
40612;BME280;26317;44.894;20.286;2023-05-12T07:49:09;100806.22;;;13.24;86.25
40612;BME280;26317;44.894;20.286;2023-05-12T07:51:39;100831.75;;;13.31;86.67
40612;BME280;26317;44.894;20.286;2023-05-12T07:54:09;100833.44;;;13.22;87.38
40612;BME280;26317;44.894;20.286;2023-05-12T07:56:40;100841.78;;;13.21;87.98
40612;BME280;26317;44.894;20.286;2023-05-12T07:59:10;100777.94;;;12.82;88.04
40612;BME280;26317;44.894;20.286;2023-05-12T08:01:43;100848.06;;;13.06;87.77
40612;BME280;26317;44.894;20.286;2023-05-12T08:04:13;100822.03;;;12.91;88.89
40612;BME280;26317;44.894;20.286;2023-05-12T08:06:43;100850.53;;;12.98;89.99
40612;BME280;26317;44.894;20.286;2023-05-12T08:09:14;100810.31;;;12.72;90.03
40612;BME280;26317;44.894;20.286;2023-05-12T08:11:44;100847.06;;;12.92;90.70
40612;BME280;26317;44.894;20.286;2023-05-12T08:14:17;100847.59;;;12.94;91.28
40612;BME280;26317;44.894;20.286;2023-05-12T08:16:51;100844.09;;;12.94;91.03
40612;BME280;26317;44.894;20.286;2023-05-12T08:19:24;100828.50;;;12.90;92.48
40612;BME280;26317;44.894;20.286;2023-05-12T08:21:54;100838.72;;;12.94;91.94
40612;BME280;26317;44.894;20.286;2023-05-12T08:24:24;100832.28;;;12.89;90.16
40612;BME280;26317;44.894;20.286;2023-05-12T08:26:55;100841.16;;;12.90;92.06
40612;BME280;26317;44.894;20.286;2023-05-12T08:29:25;100831.25;;;12.85;90.12
40612;BME280;26317;44.894;20.286;2023-05-12T08:31:58;100834.97;;;12.89;90.81
40612;BME280;26317;44.894;20.286;2023-05-12T08:34:31;100799.53;;;12.72;90.81
40612;BME280;26317;44.894;20.286;2023-05-12T08:37:02;100825.53;;;12.92;92.48
40612;BME280;26317;44.894;20.286;2023-05-12T08:39:35;100825.53;;;12.92;92.30
40612;BME280;26317;44.894;20.286;2023-05-12T08:42:12;100814.53;;;12.88;92.01
40612;BME280;26317;44.894;20.286;2023-05-12T08:44:47;100801.63;;;12.85;91.32
40612;BME280;26317;44.894;20.286;2023-05-12T08:47:21;100789.50;;;12.83;92.17
40612;BME280;26317;44.894;20.286;2023-05-12T08:49:58;100780.16;;;12.70;89.75
40612;BME280;26317;44.894;20.286;2023-05-12T08:52:32;100789.59;;;12.73;91.33
40612;BME280;26317;44.894;20.286;2023-05-12T08:55:03;100764.13;;;12.55;91.86
40612;BME280;26317;44.894;20.286;2023-05-12T08:57:35;100766.81;;;12.55;91.25
40612;BME280;26317;44.894;20.286;2023-05-12T09:00:07;100781.31;;;12.59;91.41
40612;BME280;26317;44.894;20.286;2023-05-12T09:02:41;100786.22;;;12.52;91.20
40612;BME280;26317;44.894;20.286;2023-05-12T09:05:20;100802.31;;;12.57;91.85
40612;BME280;26317;44.894;20.286;2023-05-12T09:07:51;100807.91;;;12.66;92.39
40612;BME280;26317;44.894;20.286;2023-05-12T09:10:24;100786.13;;;12.67;93.27
40612;BME280;26317;44.894;20.286;2023-05-12T09:13:02;100803.75;;;12.88;90.95
40612;BME280;26317;44.894;20.286;2023-05-12T09:15:36;100784.81;;;12.99;92.32
40612;BME280;26317;44.894;20.286;2023-05-12T09:18:11;100788.25;;;13.14;92.35
40612;BME280;26317;44.894;20.286;2023-05-12T09:20:44;100783.56;;;13.25;91.43
40612;BME280;26317;44.894;20.286;2023-05-12T09:23:15;100801.22;;;13.41;91.64
40612;BME280;26317;44.894;20.286;2023-05-12T09:25:46;100803.22;;;13.59;88.69
40612;BME280;26317;44.894;20.286;2023-05-12T09:28:34;100807.16;;;13.72;87.87
40612;BME280;26317;44.894;20.286;2023-05-12T09:31:16;100812.69;;;13.86;87.41
40612;BME280;26317;44.894;20.286;2023-05-12T09:33:49;100793.44;;;13.92;85.78
40612;BME280;26317;44.894;20.286;2023-05-12T09:36:23;100801.13;;;14.04;85.55
40612;BME280;26317;44.894;20.286;2023-05-12T09:38:58;100817.72;;;14.16;85.31
40612;BME280;26317;44.894;20.286;2023-05-12T09:41:33;100804.00;;;14.12;83.34
40612;BME280;26317;44.894;20.286;2023-05-12T09:44:04;100799.31;;;14.23;81.59
40612;BME280;26317;44.894;20.286;2023-05-12T09:46:35;100797.97;;;14.20;79.41
40612;BME280;26317;44.894;20.286;2023-05-12T09:49:08;100802.72;;;14.28;79.38
40612;BME280;26317;44.894;20.286;2023-05-12T09:51:39;100798.09;;;14.34;79.55
40612;BME280;26317;44.894;20.286;2023-05-12T09:54:10;100814.97;;;14.45;77.44
40612;BME280;26317;44.894;20.286;2023-05-12T09:56:40;100819.66;;;14.58;78.71
40612;BME280;26317;44.894;20.286;2023-05-12T09:59:12;100819.16;;;14.74;74.89
40612;BME280;26317;44.894;20.286;2023-05-12T10:01:42;100820.81;;;14.94;75.71
40612;BME280;26317;44.894;20.286;2023-05-12T10:04:16;100823.34;;;15.04;75.50
40612;BME280;26317;44.894;20.286;2023-05-12T10:06:47;100837.66;;;15.24;76.72
40612;BME280;26317;44.894;20.286;2023-05-12T10:09:18;100843.59;;;15.39;74.06
40612;BME280;26317;44.894;20.286;2023-05-12T10:11:50;100834.25;;;15.50;74.74
40612;BME280;26317;44.894;20.286;2023-05-12T10:14:23;100844.03;;;15.79;75.41
40612;BME280;26317;44.894;20.286;2023-05-12T10:16:54;100847.28;;;15.94;71.94
40612;BME280;26317;44.894;20.286;2023-05-12T10:19:27;100850.50;;;16.10;74.76
40612;BME280;26317;44.894;20.286;2023-05-12T10:21:59;100868.44;;;16.06;68.53
40612;BME280;26317;44.894;20.286;2023-05-12T10:24:31;100852.38;;;15.96;68.75
40612;BME280;26317;44.894;20.286;2023-05-12T10:27:04;100837.97;;;16.00;68.87
40612;BME280;26317;44.894;20.286;2023-05-12T10:29:36;100863.84;;;16.34;69.13
40612;BME280;26317;44.894;20.286;2023-05-12T10:32:08;100850.94;;;16.44;68.52
40612;BME280;26317;44.894;20.286;2023-05-12T10:34:41;100839.28;;;16.44;68.64
40612;BME280;26317;44.894;20.286;2023-05-12T10:37:12;100844.28;;;16.50;66.90
40612;BME280;26317;44.894;20.286;2023-05-12T10:39:45;100853.25;;;16.65;66.43
40612;BME280;26317;44.894;20.286;2023-05-12T10:42:19;100841.88;;;16.63;65.70
40612;BME280;26317;44.894;20.286;2023-05-12T10:44:52;100844.50;;;16.68;69.26
40612;BME280;26317;44.894;20.286;2023-05-12T10:47:37;100828.66;;;16.61;67.75
40612;BME280;26317;44.894;20.286;2023-05-12T10:50:11;100843.22;;;16.65;66.98
40612;BME280;26317;44.894;20.286;2023-05-12T10:52:52;100856.13;;;16.54;65.27
40612;BME280;26317;44.894;20.286;2023-05-12T10:55:30;100860.56;;;16.64;67.24
40612;BME280;26317;44.894;20.286;2023-05-12T10:58:07;100849.63;;;16.69;65.13
40612;BME280;26317;44.894;20.286;2023-05-12T11:00:43;100850.53;;;16.65;65.91
40612;BME280;26317;44.894;20.286;2023-05-12T11:03:16;100856.84;;;16.60;65.48
40612;BME280;26317;44.894;20.286;2023-05-12T11:06:00;100828.47;;;16.30;64.96
40612;BME280;26317;44.894;20.286;2023-05-12T11:08:31;100865.53;;;16.30;64.43
40612;BME280;26317;44.894;20.286;2023-05-12T11:11:04;100859.31;;;16.29;65.76
40612;BME280;26317;44.894;20.286;2023-05-12T11:13:34;100862.13;;;16.24;66.27
40612;BME280;26317;44.894;20.286;2023-05-12T11:16:05;100849.00;;;16.31;67.34
40612;BME280;26317;44.894;20.286;2023-05-12T11:18:35;100849.59;;;16.28;65.04
40612;BME280;26317;44.894;20.286;2023-05-12T11:21:11;100851.31;;;16.24;65.08
40612;BME280;26317;44.894;20.286;2023-05-12T11:23:41;100860.53;;;16.23;66.65
40612;BME280;26317;44.894;20.286;2023-05-12T11:26:16;100865.97;;;16.23;65.33
40612;BME280;26317;44.894;20.286;2023-05-12T11:28:49;100869.38;;;16.15;63.17
40612;BME280;26317;44.894;20.286;2023-05-12T11:31:20;100859.31;;;16.02;63.60
40612;BME280;26317;44.894;20.286;2023-05-12T11:34:01;100853.28;;;15.91;64.90
40612;BME280;26317;44.894;20.286;2023-05-12T11:36:42;100855.09;;;15.96;64.51
40612;BME280;26317;44.894;20.286;2023-05-12T11:39:15;100846.69;;;15.97;65.42
40612;BME280;26317;44.894;20.286;2023-05-12T11:41:47;100850.72;;;16.14;66.22
40612;BME280;26317;44.894;20.286;2023-05-12T11:44:31;100835.06;;;16.10;62.84
40612;BME280;26317;44.894;20.286;2023-05-12T11:47:10;100842.69;;;16.22;65.90
40612;BME280;26317;44.894;20.286;2023-05-12T11:49:47;100813.53;;;16.05;62.21
40612;BME280;26317;44.894;20.286;2023-05-12T11:52:22;100842.59;;;16.27;61.30
40612;BME280;26317;44.894;20.286;2023-05-12T11:54:56;100844.09;;;16.33;61.39
40612;BME280;26317;44.894;20.286;2023-05-12T11:57:27;100837.69;;;16.43;61.97
40612;BME280;26317;44.894;20.286;2023-05-12T12:00:01;100830.66;;;16.42;60.38
40612;BME280;26317;44.894;20.286;2023-05-12T12:02:33;100817.53;;;16.35;60.64
40612;BME280;26317;44.894;20.286;2023-05-12T12:05:15;100828.44;;;16.58;61.05
40612;BME280;26317;44.894;20.286;2023-05-12T12:07:50;100833.97;;;16.66;59.19
40612;BME280;26317;44.894;20.286;2023-05-12T12:10:20;100828.84;;;16.65;58.80
40612;BME280;26317;44.894;20.286;2023-05-12T12:12:53;100820.72;;;16.65;58.96
40612;BME280;26317;44.894;20.286;2023-05-12T12:15:23;100824.19;;;16.79;61.38
40612;BME280;26317;44.894;20.286;2023-05-12T12:17:53;100816.41;;;16.77;60.10
40612;BME280;26317;44.894;20.286;2023-05-12T12:20:23;100831.00;;;16.90;59.02
40612;BME280;26317;44.894;20.286;2023-05-12T12:22:56;100832.00;;;16.94;58.16
40612;BME280;26317;44.894;20.286;2023-05-12T12:25:27;100823.75;;;16.99;58.33
40612;BME280;26317;44.894;20.286;2023-05-12T12:28:00;100833.00;;;16.98;57.50
40612;BME280;26317;44.894;20.286;2023-05-12T12:30:30;100834.72;;;16.94;57.14
40612;BME280;26317;44.894;20.286;2023-05-12T12:33:03;100827.59;;;16.84;56.97
40612;BME280;26317;44.894;20.286;2023-05-12T12:35:36;100832.31;;;16.79;57.84
40612;BME280;26317;44.894;20.286;2023-05-12T12:38:09;100841.88;;;16.76;58.38
40612;BME280;26317;44.894;20.286;2023-05-12T12:40:39;100822.44;;;16.61;57.79
40612;BME280;26317;44.894;20.286;2023-05-12T12:43:09;100834.66;;;16.72;58.13
40612;BME280;26317;44.894;20.286;2023-05-12T12:45:40;100840.06;;;16.72;58.36
40612;BME280;26317;44.894;20.286;2023-05-12T12:48:10;100838.47;;;16.71;58.14
40612;BME280;26317;44.894;20.286;2023-05-12T12:50:40;100860.75;;;16.68;58.48
40612;BME280;26317;44.894;20.286;2023-05-12T12:53:13;100834.88;;;16.48;59.19
40612;BME280;26317;44.894;20.286;2023-05-12T12:55:47;100848.91;;;16.64;60.31
40612;BME280;26317;44.894;20.286;2023-05-12T12:58:18;100853.13;;;16.70;60.31
40612;BME280;26317;44.894;20.286;2023-05-12T13:00:48;100851.19;;;16.70;59.47
40612;BME280;26317;44.894;20.286;2023-05-12T13:03:19;100837.66;;;16.56;58.64
40612;BME280;26317;44.894;20.286;2023-05-12T13:05:50;100858.13;;;16.63;58.98